Time;durP1;ratioP1;P1;durP2;ratioP2;P2;SDS_P1;SDS_P2;PMS_P1;PMS_P2;Temp;Humidity;BMP_temperature;BMP_pressure;BME280_temperature;BME280_humidity;BME280_pressure;Samples;Min_cycle;Max_cycle;Signal;HPM_P1;HPM_P2
2023/06/30 00:01:55;;;;;;;15.73;12.40;;;;;;;;;;5052304;28;20398;-80
2023/06/30 00:04:26;;;;;;;13.90;12.40;;;;;;;;;;5036192;28;20474;-80
2023/06/30 00:06:56;;;;;;;20.13;13.93;;;;;;;;;;5052550;28;20410;-80
2023/06/30 00:09:22;;;;;;;15.80;14.10;;;;;;;;;;5054511;28;20504;-79
2023/06/30 00:11:53;;;;;;;15.07;13.57;;;;;;;;;;5036456;28;20467;-80
2023/06/30 00:14:19;;;;;;;13.60;12.30;;;;;;;;;;5052668;28;20435;-80
2023/06/30 00:16:45;;;;;;;11.63;10.43;;;;;;;;;;5053132;28;20465;-80
2023/06/30 00:19:11;;;;;;;11.47;10.20;;;;;;;;;;5052780;28;20501;-81
2023/06/30 00:21:42;;;;;;;8.83;7.93;;;;;;;;;;5053919;28;20796;-79
2023/06/30 00:24:10;;;;;;;8.60;7.00;;;;;;;;;;5054188;28;20385;-80
2023/06/30 00:26:36;;;;;;;13.57;8.50;;;;;;;;;;5053029;28;20441;-80
2023/06/30 00:29:02;;;;;;;7.77;7.03;;;;;;;;;;5054058;28;20383;-81
2023/06/30 00:31:28;;;;;;;9.07;6.83;;;;;;;;;;5036326;28;20471;-81
2023/06/30 00:33:55;;;;;;;10.33;6.30;;;;;;;;;;5052484;28;20415;-82
2023/06/30 00:36:21;;;;;;;11.97;6.20;;;;;;;;;;5053087;28;20415;-81
2023/06/30 00:38:47;;;;;;;5.90;5.37;;;;;;;;;;5053816;28;20454;-81
2023/06/30 00:41:13;;;;;;;5.87;5.37;;;;;;;;;;5052109;28;20479;-81
2023/06/30 00:43:39;;;;;;;7.57;5.97;;;;;;;;;;5052564;28;20397;-81
2023/06/30 00:46:06;;;;;;;9.00;6.20;;;;;;;;;;5051843;28;20412;-82
2023/06/30 00:48:32;;;;;;;7.30;6.70;;;;;;;;;;5053823;28;20407;-83
2023/06/30 00:50:58;;;;;;;7.13;6.43;;;;;;;;;;5039381;28;20466;-83
2023/06/30 00:53:27;;;;;;;9.47;6.53;;;;;;;;;;5056253;28;20397;-83
2023/06/30 00:55:53;;;;;;;8.43;7.63;;;;;;;;;;5039083;28;20432;-83
2023/06/30 00:58:19;;;;;;;11.87;7.50;;;;;;;;;;5039313;28;20431;-83
2023/06/30 01:00:46;;;;;;;8.03;7.23;;;;;;;;;;5057071;28;20419;-83
2023/06/30 01:03:20;;;;;;;8.97;8.17;;;;;;;;;;5056866;28;20404;-83
2023/06/30 01:06:00;;;;;;;8.77;7.80;;;;;;;;;;5056013;28;20438;-82
2023/06/30 01:08:34;;;;;;;8.47;7.67;;;;;;;;;;5056396;28;20403;-81
2023/06/30 01:11:01;;;;;;;8.67;7.77;;;;;;;;;;5055186;28;20520;-81
2023/06/30 01:13:27;;;;;;;9.80;8.33;;;;;;;;;;5057266;28;20439;-80
2023/06/30 01:15:55;;;;;;;8.93;8.13;;;;;;;;;;5055982;28;20412;-80
2023/06/30 01:18:22;;;;;;;9.07;8.13;;;;;;;;;;5057537;28;20458;-80
2023/06/30 01:20:49;;;;;;;8.63;7.60;;;;;;;;;;5040030;28;20416;-80
2023/06/30 01:23:26;;;;;;;9.03;8.00;;;;;;;;;;5055666;28;20823;-81
2023/06/30 01:25:53;;;;;;;10.20;8.70;;;;;;;;;;5057582;28;20399;-80
2023/06/30 01:28:19;;;;;;;10.77;9.27;;;;;;;;;;5055510;28;20465;-80
2023/06/30 01:30:45;;;;;;;9.97;8.80;;;;;;;;;;5039342;28;20509;-80
2023/06/30 01:33:11;;;;;;;11.87;9.23;;;;;;;;;;5056851;28;20908;-80
2023/06/30 01:35:37;;;;;;;9.27;7.30;;;;;;;;;;5055606;28;20416;-80
2023/06/30 01:38:03;;;;;;;12.60;8.47;;;;;;;;;;5055725;28;20408;-80
2023/06/30 01:40:29;;;;;;;8.70;7.80;;;;;;;;;;5056414;28;20463;-80
2023/06/30 01:42:57;;;;;;;9.83;7.73;;;;;;;;;;5057168;28;20444;-80
2023/06/30 01:45:24;;;;;;;8.73;7.00;;;;;;;;;;5056696;28;20440;-80
2023/06/30 01:47:50;;;;;;;9.80;8.10;;;;;;;;;;5057022;28;20412;-80
2023/06/30 01:50:16;;;;;;;9.93;8.93;;;;;;;;;;5056421;28;20404;-80
2023/06/30 01:52:42;;;;;;;12.70;9.20;;;;;;;;;;5057080;28;21024;-80
2023/06/30 01:55:14;;;;;;;10.57;9.47;;;;;;;;;;5055091;28;20458;-80
2023/06/30 01:57:40;;;;;;;15.20;8.90;;;;;;;;;;5055292;28;20401;-80
2023/06/30 02:00:07;;;;;;;11.23;10.00;;;;;;;;;;5054781;28;20957;-80
2023/06/30 02:02:33;;;;;;;17.70;10.83;;;;;;;;;;5055253;28;20467;-79
2023/06/30 02:04:59;;;;;;;14.20;11.03;;;;;;;;;;5056608;28;20443;-80
2023/06/30 02:07:25;;;;;;;11.37;10.03;;;;;;;;;;5055350;28;20408;-79
2023/06/30 02:09:51;;;;;;;13.03;10.20;;;;;;;;;;5055439;28;20416;-80
2023/06/30 02:12:17;;;;;;;14.43;9.40;;;;;;;;;;5056232;28;20467;-79
2023/06/30 02:14:43;;;;;;;11.83;8.50;;;;;;;;;;5056302;28;20808;-79
2023/06/30 02:17:10;;;;;;;12.90;9.53;;;;;;;;;;5056007;28;20427;-79
2023/06/30 02:19:36;;;;;;;10.30;9.23;;;;;;;;;;5056312;28;20438;-80
2023/06/30 02:22:02;;;;;;;11.57;10.37;;;;;;;;;;5056210;28;20426;-80
2023/06/30 02:24:28;;;;;;;16.10;10.80;;;;;;;;;;5056043;28;20450;-79
2023/06/30 02:26:54;;;;;;;11.90;9.60;;;;;;;;;;5056324;28;20408;-79
2023/06/30 02:29:20;;;;;;;17.70;10.30;;;;;;;;;;5055388;28;20920;-79
2023/06/30 02:31:46;;;;;;;11.83;8.70;;;;;;;;;;5054697;28;20482;-79
2023/06/30 02:34:12;;;;;;;13.03;8.90;;;;;;;;;;5054627;28;20423;-80
2023/06/30 02:36:38;;;;;;;16.50;8.97;;;;;;;;;;5054757;28;20416;-79
2023/06/30 02:39:04;;;;;;;16.87;9.37;;;;;;;;;;5055835;28;20392;-80
2023/06/30 02:41:30;;;;;;;15.40;11.03;;;;;;;;;;5054308;28;20468;-80
2023/06/30 02:43:56;;;;;;;16.13;11.20;;;;;;;;;;5055904;28;20401;-79
2023/06/30 02:46:22;;;;;;;15.73;11.30;;;;;;;;;;5055491;28;20410;-80
2023/06/30 02:48:48;;;;;;;15.97;10.23;;;;;;;;;;5054071;28;20454;-80
2023/06/30 02:51:14;;;;;;;17.17;11.60;;;;;;;;;;5053921;28;20459;-79
2023/06/30 02:53:40;;;;;;;14.90;12.07;;;;;;;;;;5055943;28;20883;-79
2023/06/30 02:56:06;;;;;;;18.83;12.53;;;;;;;;;;5054234;28;20499;-79
2023/06/30 02:58:36;;;;;;;18.13;12.67;;;;;;;;;;5054530;28;20976;-80
2023/06/30 03:01:02;;;;;;;17.00;13.23;;;;;;;;;;5054139;28;20412;-82
2023/06/30 03:03:28;;;;;;;15.60;12.17;;;;;;;;;;5053796;28;20417;-79
2023/06/30 03:05:53;;;;;;;14.60;11.90;;;;;;;;;;5054373;28;20427;-80
2023/06/30 03:08:19;;;;;;;24.10;12.50;;;;;;;;;;5054536;28;20538;-79
2023/06/30 03:10:48;;;;;;;20.80;12.10;;;;;;;;;;5054186;28;20955;-79
2023/06/30 03:13:14;;;;;;;20.43;13.20;;;;;;;;;;5054314;28;20499;-79
2023/06/30 03:15:40;;;;;;;24.87;13.77;;;;;;;;;;5055063;28;20510;-79
2023/06/30 03:18:06;;;;;;;22.00;13.40;;;;;;;;;;5053846;28;20416;-79
2023/06/30 03:20:32;;;;;;;22.13;14.63;;;;;;;;;;5055089;28;20514;-80
2023/06/30 03:22:58;;;;;;;23.30;14.23;;;;;;;;;;5053638;28;20420;-79
2023/06/30 03:25:24;;;;;;;20.07;13.53;;;;;;;;;;5053415;28;20419;-79
2023/06/30 03:27:50;;;;;;;22.63;16.40;;;;;;;;;;5055323;28;20430;-79
2023/06/30 03:30:16;;;;;;;30.37;16.80;;;;;;;;;;5054493;28;20458;-79
2023/06/30 03:32:42;;;;;;;20.67;15.27;;;;;;;;;;5054175;28;20415;-79
2023/06/30 03:35:08;;;;;;;23.80;15.20;;;;;;;;;;5054761;28;20416;-79
2023/06/30 03:37:34;;;;;;;28.33;17.30;;;;;;;;;;5054915;28;20420;-79
2023/06/30 03:40:00;;;;;;;34.37;17.77;;;;;;;;;;5054768;28;20751;-79
2023/06/30 03:42:26;;;;;;;25.80;16.83;;;;;;;;;;5036316;28;20454;-79
2023/06/30 03:44:52;;;;;;;25.07;19.70;;;;;;;;;;5054618;28;20412;-79
2023/06/30 03:47:18;;;;;;;27.03;18.80;;;;;;;;;;5054900;28;20431;-79
2023/06/30 03:49:44;;;;;;;24.47;17.63;;;;;;;;;;5054923;28;20396;-79
2023/06/30 03:52:10;;;;;;;28.20;18.40;;;;;;;;;;5073231;28;20459;-80
2023/06/30 03:54:36;;;;;;;23.97;17.57;;;;;;;;;;5053020;28;20854;-81
2023/06/30 03:57:02;;;;;;;33.17;18.83;;;;;;;;;;5055106;28;20423;-79
2023/06/30 03:59:28;;;;;;;26.63;17.63;;;;;;;;;;5054384;28;20765;-79
2023/06/30 04:01:54;;;;;;;31.23;17.57;;;;;;;;;;5052616;28;20507;-80
2023/06/30 04:04:20;;;;;;;31.93;18.67;;;;;;;;;;5049712;28;20504;-79
2023/06/30 04:06:47;;;;;;;32.57;19.73;;;;;;;;;;5051813;28;20473;-80
2023/06/30 04:09:13;;;;;;;29.33;19.20;;;;;;;;;;5061566;28;20829;-79
2023/06/30 04:11:39;;;;;;;26.50;16.37;;;;;;;;;;5065130;28;20465;-79
2023/06/30 04:14:05;;;;;;;23.70;17.50;;;;;;;;;;5036602;28;20432;-80
2023/06/30 04:16:31;;;;;;;25.43;17.93;;;;;;;;;;5054361;28;20450;-80
2023/06/30 04:18:57;;;;;;;26.97;18.37;;;;;;;;;;5054122;28;20428;-79
2023/06/30 04:21:23;;;;;;;28.70;19.10;;;;;;;;;;5054280;28;20460;-79
2023/06/30 04:23:49;;;;;;;28.27;17.40;;;;;;;;;;5056056;28;20447;-80
2023/06/30 04:26:17;;;;;;;28.00;17.70;;;;;;;;;;5056321;28;20440;-80
2023/06/30 04:28:43;;;;;;;39.80;18.40;;;;;;;;;;5056571;28;20420;-79
2023/06/30 04:31:09;;;;;;;28.67;18.00;;;;;;;;;;5055789;28;20471;-81
2023/06/30 04:33:35;;;;;;;27.77;19.53;;;;;;;;;;5057875;28;20462;-82
2023/06/30 04:36:01;;;;;;;29.00;17.60;;;;;;;;;;5030106;28;20919;-80
2023/06/30 04:38:27;;;;;;;27.53;17.43;;;;;;;;;;5057161;28;20428;-79
2023/06/30 04:40:54;;;;;;;34.10;17.70;;;;;;;;;;5061094;28;20528;-79
2023/06/30 04:43:20;;;;;;;30.73;18.20;;;;;;;;;;5061192;28;20435;-80
2023/06/30 04:45:46;;;;;;;32.87;17.73;;;;;;;;;;5056251;28;20423;-80
2023/06/30 04:48:12;;;;;;;29.40;18.93;;;;;;;;;;5056315;28;20489;-83
2023/06/30 04:50:38;;;;;;;30.07;17.00;;;;;;;;;;5055700;28;20491;-82
2023/06/30 04:53:04;;;;;;;29.77;17.43;;;;;;;;;;5056202;28;20419;-82
2023/06/30 04:55:30;;;;;;;33.17;14.73;;;;;;;;;;5045556;28;20907;-82
2023/06/30 04:57:56;;;;;;;25.50;17.40;;;;;;;;;;5056373;28;20474;-82
2023/06/30 05:00:25;;;;;;;32.37;16.73;;;;;;;;;;5057291;28;20812;-82
2023/06/30 05:02:51;;;;;;;30.17;15.03;;;;;;;;;;5057357;28;20403;-82
2023/06/30 05:05:17;;;;;;;26.43;16.33;;;;;;;;;;5056175;28;20414;-82
2023/06/30 05:07:44;;;;;;;42.83;16.23;;;;;;;;;;5056886;28;20430;-83
2023/06/30 05:10:10;;;;;;;30.83;14.60;;;;;;;;;;5055577;28;20399;-83
2023/06/30 05:12:36;;;;;;;24.90;15.20;;;;;;;;;;5055643;28;20514;-83
2023/06/30 05:15:02;;;;;;;31.93;15.73;;;;;;;;;;5056930;28;20474;-82
2023/06/30 05:17:28;;;;;;;20.10;13.97;;;;;;;;;;5057166;28;20484;-83
2023/06/30 05:19:54;;;;;;;24.67;13.80;;;;;;;;;;5052691;28;20409;-83
2023/06/30 05:22:20;;;;;;;21.23;14.90;;;;;;;;;;5041146;28;20512;-80
2023/06/30 05:24:47;;;;;;;24.90;13.00;;;;;;;;;;5055355;28;20546;-80
2023/06/30 05:27:14;;;;;;;21.13;12.70;;;;;;;;;;5056366;28;20416;-83
2023/06/30 05:29:40;;;;;;;20.40;12.33;;;;;;;;;;5056711;28;20412;-82
2023/06/30 05:32:06;;;;;;;19.13;12.10;;;;;;;;;;5054905;28;20487;-82
2023/06/30 05:34:32;;;;;;;18.57;12.40;;;;;;;;;;5056075;28;20450;-83
2023/06/30 05:36:58;;;;;;;23.00;11.30;;;;;;;;;;5055888;28;20800;-83
2023/06/30 05:39:24;;;;;;;24.60;12.47;;;;;;;;;;5054877;28;20424;-83
2023/06/30 05:41:50;;;;;;;22.03;11.60;;;;;;;;;;5054186;28;20478;-83
2023/06/30 05:44:16;;;;;;;16.73;12.10;;;;;;;;;;5055978;28;20806;-83
2023/06/30 05:46:42;;;;;;;18.73;10.57;;;;;;;;;;5058516;28;20420;-83
2023/06/30 05:49:08;;;;;;;15.60;9.60;;;;;;;;;;5056091;28;20454;-83
2023/06/30 05:51:34;;;;;;;17.57;10.13;;;;;;;;;;5034209;28;20476;-83
2023/06/30 05:54:01;;;;;;;16.97;11.13;;;;;;;;;;5045003;28;20424;-84
2023/06/30 05:56:27;;;;;;;13.83;9.53;;;;;;;;;;5055110;28;20423;-83
2023/06/30 05:58:53;;;;;;;19.40;9.57;;;;;;;;;;5036395;28;20508;-83
2023/06/30 06:01:20;;;;;;;14.93;9.73;;;;;;;;;;5055638;28;20444;-83
2023/06/30 06:03:46;;;;;;;17.73;10.07;;;;;;;;;;5061231;28;20829;-83
2023/06/30 06:06:12;;;;;;;17.50;10.33;;;;;;;;;;5072516;28;20407;-84
2023/06/30 06:08:48;;;;;;;16.90;9.30;;;;;;;;;;5054248;28;20907;-84
2023/06/30 06:11:14;;;;;;;19.07;10.67;;;;;;;;;;5035349;28;20496;-84
2023/06/30 06:13:40;;;;;;;17.63;9.80;;;;;;;;;;5058181;28;20431;-84
2023/06/30 06:16:07;;;;;;;19.80;10.63;;;;;;;;;;5053902;28;20420;-84
2023/06/30 06:18:33;;;;;;;15.40;10.10;;;;;;;;;;5043138;28;20857;-84
2023/06/30 06:20:59;;;;;;;15.83;9.37;;;;;;;;;;5035672;28;20401;-82
2023/06/30 06:23:25;;;;;;;17.67;8.67;;;;;;;;;;5033664;28;20833;-84
2023/06/30 06:25:52;;;;;;;18.50;8.30;;;;;;;;;;5034569;28;20449;-86
2023/06/30 06:28:17;;;;;;;21.77;8.57;;;;;;;;;;5054110;28;20426;-85
2023/06/30 06:30:44;;;;;;;13.83;8.10;;;;;;;;;;5054967;28;20472;-84
2023/06/30 06:33:10;;;;;;;15.60;7.40;;;;;;;;;;5054911;28;20904;-84
2023/06/30 06:35:36;;;;;;;13.10;8.37;;;;;;;;;;5054465;28;20423;-85
2023/06/30 06:38:02;;;;;;;8.50;5.87;;;;;;;;;;5055034;28;20891;-85
2023/06/30 06:40:29;;;;;;;8.30;5.90;;;;;;;;;;5054549;28;20448;-85
2023/06/30 06:42:55;;;;;;;13.43;5.70;;;;;;;;;;5053359;28;20448;-85
2023/06/30 06:45:21;;;;;;;9.80;5.30;;;;;;;;;;5052551;28;20416;-85
2023/06/30 06:48:06;;;;;;;11.83;6.20;;;;;;;;;;5052750;28;20416;-85
2023/06/30 06:50:32;;;;;;;9.87;5.00;;;;;;;;;;5053921;28;20430;-85
2023/06/30 06:52:58;;;;;;;5.63;4.73;;;;;;;;;;5053140;28;20408;-86
2023/06/30 06:55:24;;;;;;;10.77;4.47;;;;;;;;;;5054289;28;20462;-86
2023/06/30 06:57:50;;;;;;;9.60;4.83;;;;;;;;;;5053019;28;20419;-86
2023/06/30 07:00:17;;;;;;;9.83;5.10;;;;;;;;;;5052611;28;20427;-86
2023/06/30 07:02:43;;;;;;;13.73;4.73;;;;;;;;;;5053910;28;20416;-85
2023/06/30 07:05:10;;;;;;;7.17;4.20;;;;;;;;;;5052606;28;20431;-86
2023/06/30 07:07:36;;;;;;;9.80;3.93;;;;;;;;;;5053846;28;20847;-86
2023/06/30 07:10:02;;;;;;;9.77;3.63;;;;;;;;;;5054061;28;20420;-86
2023/06/30 07:12:28;;;;;;;6.77;4.27;;;;;;;;;;5052089;28;20532;-86
2023/06/30 07:14:54;;;;;;;10.17;4.37;;;;;;;;;;5036037;28;20907;-86
2023/06/30 07:17:20;;;;;;;7.93;4.50;;;;;;;;;;5052589;28;20447;-86
2023/06/30 07:19:46;;;;;;;5.20;3.57;;;;;;;;;;5052988;28;20508;-87
2023/06/30 07:22:12;;;;;;;5.80;3.63;;;;;;;;;;5053846;28;20487;-86
2023/06/30 07:24:38;;;;;;;9.97;5.27;;;;;;;;;;5054412;28;20391;-86
2023/06/30 07:27:04;;;;;;;9.87;3.73;;;;;;;;;;5056237;28;20426;-87
2023/06/30 07:29:30;;;;;;;11.20;3.80;;;;;;;;;;5052979;28;20430;-86
2023/06/30 07:31:56;;;;;;;6.67;3.80;;;;;;;;;;5053873;28;20463;-86
2023/06/30 07:34:23;;;;;;;9.70;4.20;;;;;;;;;;5053486;28;20427;-87
2023/06/30 07:36:49;;;;;;;12.23;3.13;;;;;;;;;;5032577;28;20782;-86
2023/06/30 07:39:15;;;;;;;8.97;3.40;;;;;;;;;;5041956;28;20481;-87
2023/06/30 07:41:41;;;;;;;7.90;3.60;;;;;;;;;;5051927;28;21002;-86
2023/06/30 07:44:09;;;;;;;9.83;3.13;;;;;;;;;;5053651;28;20404;-86
2023/06/30 07:46:35;;;;;;;6.03;2.80;;;;;;;;;;5053099;28;20404;-87
2023/06/30 07:49:01;;;;;;;8.33;3.30;;;;;;;;;;5053395;28;20416;-87
2023/06/30 07:51:27;;;;;;;6.17;2.10;;;;;;;;;;5053376;28;20536;-87
2023/06/30 07:53:53;;;;;;;7.23;2.90;;;;;;;;;;5068197;28;20426;-87
2023/06/30 07:56:19;;;;;;;4.33;2.33;;;;;;;;;;5057114;28;20425;-87
2023/06/30 07:58:45;;;;;;;6.67;3.07;;;;;;;;;;5057073;28;20382;-87
2023/06/30 08:01:11;;;;;;;9.30;2.77;;;;;;;;;;5057416;28;20788;-86
2023/06/30 08:03:37;;;;;;;6.73;3.90;;;;;;;;;;5057237;28;20430;-86
2023/06/30 08:06:03;;;;;;;10.67;3.30;;;;;;;;;;5056125;28;20477;-85
2023/06/30 08:08:30;;;;;;;6.73;2.93;;;;;;;;;;5039452;28;20458;-86
2023/06/30 08:10:56;;;;;;;5.40;2.63;;;;;;;;;;5056821;28;20459;-87
2023/06/30 08:13:22;;;;;;;4.03;3.70;;;;;;;;;;5055988;28;20477;-86
2023/06/30 08:15:48;;;;;;;8.70;3.20;;;;;;;;;;5055944;28;20784;-83
2023/06/30 08:18:14;;;;;;;14.43;3.30;;;;;;;;;;5056630;28;20814;-84
2023/06/30 08:20:40;;;;;;;4.47;2.50;;;;;;;;;;5055047;28;20543;-86
2023/06/30 08:23:06;;;;;;;8.47;3.60;;;;;;;;;;5055568;28;20494;-84
2023/06/30 08:25:32;;;;;;;6.70;4.03;;;;;;;;;;5056774;28;20386;-84
2023/06/30 08:27:59;;;;;;;7.23;2.60;;;;;;;;;;5039259;28;20416;-84
2023/06/30 08:30:25;;;;;;;9.33;2.43;;;;;;;;;;5055714;28;20900;-85
2023/06/30 08:32:51;;;;;;;8.67;2.60;;;;;;;;;;5056042;28;20681;-86
2023/06/30 08:35:17;;;;;;;7.37;2.60;;;;;;;;;;5055477;28;20415;-85
2023/06/30 08:37:43;;;;;;;5.10;2.00;;;;;;;;;;5055960;28;20542;-84
2023/06/30 08:40:09;;;;;;;4.00;1.67;;;;;;;;;;5054555;28;20806;-85
2023/06/30 08:42:36;;;;;;;5.80;2.47;;;;;;;;;;5055263;28;20383;-85
2023/06/30 08:45:03;;;;;;;3.67;2.07;;;;;;;;;;5055105;28;20396;-85
2023/06/30 08:47:31;;;;;;;6.07;2.23;;;;;;;;;;5055809;28;20419;-86
2023/06/30 08:49:58;;;;;;;5.33;2.10;;;;;;;;;;5055166;28;20430;-85
2023/06/30 08:52:25;;;;;;;4.43;2.10;;;;;;;;;;5056536;28;20464;-85
2023/06/30 08:54:51;;;;;;;3.40;2.07;;;;;;;;;;5055324;28;20413;-85
2023/06/30 08:57:18;;;;;;;4.47;2.17;;;;;;;;;;5054826;28;20406;-86
2023/06/30 08:59:47;;;;;;;7.07;2.40;;;;;;;;;;5056165;28;20469;-86
2023/06/30 09:02:13;;;;;;;3.60;2.13;;;;;;;;;;5055800;28;20378;-87
2023/06/30 09:04:40;;;;;;;5.67;1.73;;;;;;;;;;5038109;28;20862;-84
2023/06/30 09:07:08;;;;;;;3.27;1.40;;;;;;;;;;5064258;28;20423;-86
2023/06/30 09:09:40;;;;;;;3.37;1.73;;;;;;;;;;5055932;28;20383;-85
2023/06/30 09:12:06;;;;;;;5.50;2.00;;;;;;;;;;5057321;28;20438;-86
2023/06/30 09:14:33;;;;;;;2.50;1.30;;;;;;;;;;5055404;28;20800;-85
2023/06/30 09:17:03;;;;;;;5.77;1.87;;;;;;;;;;5056494;28;20412;-85
2023/06/30 09:19:29;;;;;;;6.63;1.80;;;;;;;;;;5054390;28;20489;-86
2023/06/30 09:21:56;;;;;;;3.03;1.73;;;;;;;;;;5054922;28;20390;-86
2023/06/30 09:24:22;;;;;;;5.90;1.63;;;;;;;;;;5054986;28;20490;-87
2023/06/30 09:26:51;;;;;;;2.43;1.70;;;;;;;;;;5054626;28;20479;-86
2023/06/30 09:29:18;;;;;;;4.70;1.40;;;;;;;;;;5056100;28;20787;-85
2023/06/30 09:31:44;;;;;;;4.20;1.83;;;;;;;;;;5053853;28;20474;-85
2023/06/30 09:34:14;;;;;;;2.03;1.30;;;;;;;;;;5053869;28;20427;-86
2023/06/30 09:36:49;;;;;;;3.23;1.30;;;;;;;;;;5053266;28;20408;-86
2023/06/30 09:39:15;;;;;;;3.03;1.60;;;;;;;;;;5053743;28;20501;-86
2023/06/30 09:41:46;;;;;;;4.17;1.50;;;;;;;;;;5052978;28;20467;-89
2023/06/30 09:44:13;;;;;;;6.60;1.87;;;;;;;;;;5054335;28;20420;-85
2023/06/30 09:46:46;;;;;;;4.90;1.80;;;;;;;;;;5052507;28;20404;-86
2023/06/30 09:49:32;;;;;;;2.80;1.43;;;;;;;;;;5053330;28;20836;-85
2023/06/30 09:51:59;;;;;;;3.57;1.60;;;;;;;;;;5053615;28;20487;-85
2023/06/30 09:54:26;;;;;;;5.00;1.53;;;;;;;;;;5052785;28;20499;-84
2023/06/30 09:57:01;;;;;;;3.73;1.80;;;;;;;;;;5035900;28;20415;-85
2023/06/30 09:59:27;;;;;;;4.87;1.20;;;;;;;;;;5051078;28;20424;-85
2023/06/30 10:01:54;;;;;;;2.90;1.40;;;;;;;;;;5051688;28;20455;-86
2023/06/30 10:04:20;;;;;;;2.83;1.23;;;;;;;;;;5054002;28;20457;-85
2023/06/30 10:06:47;;;;;;;5.90;1.70;;;;;;;;;;5052615;28;20855;-85
2023/06/30 10:09:14;;;;;;;8.03;1.60;;;;;;;;;;5052624;28;20926;-85
2023/06/30 10:11:41;;;;;;;5.77;1.60;;;;;;;;;;5053356;28;20489;-85
2023/06/30 10:14:08;;;;;;;4.37;1.67;;;;;;;;;;5053703;28;20752;-83
2023/06/30 10:16:34;;;;;;;3.77;1.40;;;;;;;;;;5032865;28;20436;-83
2023/06/30 10:19:02;;;;;;;3.23;1.60;;;;;;;;;;5053491;28;20473;-83
2023/06/30 10:21:28;;;;;;;3.83;2.20;;;;;;;;;;5033827;28;20435;-79
2023/06/30 10:23:55;;;;;;;5.60;1.80;;;;;;;;;;5032857;28;20492;-80
2023/06/30 10:26:22;;;;;;;4.50;2.00;;;;;;;;;;5052841;28;20423;-80
2023/06/30 10:28:48;;;;;;;4.10;1.73;;;;;;;;;;5053259;28;20431;-80
2023/06/30 10:31:14;;;;;;;2.97;1.60;;;;;;;;;;5035352;28;20447;-80
2023/06/30 10:33:40;;;;;;;5.90;1.77;;;;;;;;;;5050510;28;20899;-79
2023/06/30 10:36:06;;;;;;;4.20;1.50;;;;;;;;;;5053856;28;20458;-81
2023/06/30 10:38:33;;;;;;;4.57;1.70;;;;;;;;;;5053719;28;20420;-80
2023/06/30 10:41:18;;;;;;;2.43;1.47;;;;;;;;;;5052742;28;20468;-80
2023/06/30 10:44:02;;;;;;;4.67;1.67;;;;;;;;;;5052618;28;20415;-80
2023/06/30 10:46:41;;;;;;;2.20;1.20;;;;;;;;;;5053255;28;20803;-80
2023/06/30 10:49:07;;;;;;;2.50;1.60;;;;;;;;;;5052680;28;20465;-80
2023/06/30 10:51:37;;;;;;;3.93;1.83;;;;;;;;;;5053131;28;20519;-80
2023/06/30 10:54:03;;;;;;;4.30;2.13;;;;;;;;;;5053158;28;20416;-81
2023/06/30 10:56:30;;;;;;;3.30;1.47;;;;;;;;;;5035900;28;20416;-79
2023/06/30 10:58:58;;;;;;;5.97;2.03;;;;;;;;;;5053919;28;20906;-79
2023/06/30 11:01:27;;;;;;;3.40;2.10;;;;;;;;;;5052149;28;20424;-79
2023/06/30 11:03:56;;;;;;;3.90;2.17;;;;;;;;;;5054224;28;20815;-82
2023/06/30 11:06:22;;;;;;;2.70;1.40;;;;;;;;;;5052245;28;20423;-80
2023/06/30 11:09:01;;;;;;;5.40;1.83;;;;;;;;;;5053234;28;20750;-80
2023/06/30 11:11:27;;;;;;;4.80;1.90;;;;;;;;;;5052826;28;20841;-80
2023/06/30 11:14:11;;;;;;;4.10;1.27;;;;;;;;;;5051310;28;20424;-81
2023/06/30 11:16:56;;;;;;;3.47;1.10;;;;;;;;;;5052265;28;20396;-79
2023/06/30 11:19:25;;;;;;;5.87;1.63;;;;;;;;;;5052179;28;20767;-80
2023/06/30 11:22:10;;;;;;;3.43;1.83;;;;;;;;;;5047980;28;21024;-79
2023/06/30 11:24:36;;;;;;;3.17;1.80;;;;;;;;;;5051115;28;20751;-80
2023/06/30 11:27:04;;;;;;;2.03;1.43;;;;;;;;;;5052205;28;20507;-80
2023/06/30 11:29:30;;;;;;;2.50;1.70;;;;;;;;;;5053198;28;20415;-80
2023/06/30 11:31:56;;;;;;;3.97;1.70;;;;;;;;;;5051218;28;20939;-81
2023/06/30 11:34:22;;;;;;;5.60;1.50;;;;;;;;;;5051256;28;20423;-80
2023/06/30 11:36:48;;;;;;;4.40;1.20;;;;;;;;;;5032661;28;20980;-81
2023/06/30 11:39:14;;;;;;;6.10;1.80;;;;;;;;;;5051354;28;20408;-78
2023/06/30 11:41:40;;;;;;;3.80;1.40;;;;;;;;;;5050677;28;20464;-79
2023/06/30 11:44:07;;;;;;;3.33;1.50;;;;;;;;;;5052587;28;20539;-80
2023/06/30 11:46:36;;;;;;;4.50;1.97;;;;;;;;;;5050511;28;20998;-81
2023/06/30 11:49:02;;;;;;;4.50;2.00;;;;;;;;;;5050410;28;20836;-80
2023/06/30 11:51:30;;;;;;;3.10;1.50;;;;;;;;;;5034355;28;20502;-80
2023/06/30 11:53:56;;;;;;;3.10;1.60;;;;;;;;;;5050114;28;20420;-79
2023/06/30 11:56:22;;;;;;;5.83;2.23;;;;;;;;;;5052101;28;20404;-80
2023/06/30 11:58:48;;;;;;;3.30;1.60;;;;;;;;;;5034407;28;20454;-80
2023/06/30 12:01:14;;;;;;;4.53;1.97;;;;;;;;;;5050706;28;20439;-80
2023/06/30 12:03:40;;;;;;;4.50;1.90;;;;;;;;;;5034482;28;20416;-82
2023/06/30 12:06:07;;;;;;;1.87;1.40;;;;;;;;;;5051098;28;20428;-80
2023/06/30 12:08:37;;;;;;;2.83;1.50;;;;;;;;;;5050831;28;20408;-80
2023/06/30 12:11:07;;;;;;;3.50;1.67;;;;;;;;;;5050775;28;20463;-81
2023/06/30 12:13:33;;;;;;;3.30;1.10;;;;;;;;;;5050608;28;20424;-81
2023/06/30 12:16:00;;;;;;;2.53;1.70;;;;;;;;;;5051501;28;20386;-79
2023/06/30 12:18:39;;;;;;;4.20;1.50;;;;;;;;;;5050956;28;20477;-80
2023/06/30 12:21:12;;;;;;;3.57;1.60;;;;;;;;;;5049908;28;20480;-79
2023/06/30 12:23:45;;;;;;;5.13;1.77;;;;;;;;;;5050702;28;20465;-81
2023/06/30 12:26:11;;;;;;;4.70;1.50;;;;;;;;;;5047014;28;20968;-80
2023/06/30 12:28:38;;;;;;;4.00;1.80;;;;;;;;;;5052289;28;20411;-80
2023/06/30 12:31:04;;;;;;;5.67;1.50;;;;;;;;;;5035295;28;20473;-80
2023/06/30 12:33:30;;;;;;;3.03;1.47;;;;;;;;;;5050739;28;20900;-80
2023/06/30 12:35:55;;;;;;;4.20;1.87;;;;;;;;;;5032038;28;20421;-80
2023/06/30 12:38:21;;;;;;;5.00;1.83;;;;;;;;;;5052090;28;20939;-79
2023/06/30 12:40:48;;;;;;;4.93;1.90;;;;;;;;;;5054428;28;20455;-80
2023/06/30 12:43:14;;;;;;;3.87;1.70;;;;;;;;;;5052073;28;20428;-80
2023/06/30 12:45:40;;;;;;;5.87;2.30;;;;;;;;;;5054695;28;20453;-80
2023/06/30 12:48:06;;;;;;;5.50;1.77;;;;;;;;;;5055733;28;20412;-80
2023/06/30 12:50:32;;;;;;;4.60;1.70;;;;;;;;;;5054886;28;20478;-80
2023/06/30 12:52:58;;;;;;;3.13;1.77;;;;;;;;;;5053671;28;21040;-80
2023/06/30 12:55:24;;;;;;;4.20;2.00;;;;;;;;;;5055350;28;20408;-82
2023/06/30 12:57:50;;;;;;;2.30;1.87;;;;;;;;;;5055018;28;20395;-81
2023/06/30 13:00:16;;;;;;;2.77;1.50;;;;;;;;;;5053675;28;20462;-80
2023/06/30 13:02:42;;;;;;;4.17;1.80;;;;;;;;;;5054077;28;20485;-81
2023/06/30 13:05:08;;;;;;;2.93;1.97;;;;;;;;;;5035670;28;20429;-80
2023/06/30 13:07:35;;;;;;;3.23;1.80;;;;;;;;;;5053334;28;20474;-78
2023/06/30 13:10:02;;;;;;;3.07;1.73;;;;;;;;;;5054661;28;20538;-80
2023/06/30 13:12:29;;;;;;;3.90;1.60;;;;;;;;;;5053945;28;20456;-80
2023/06/30 13:14:55;;;;;;;2.77;1.80;;;;;;;;;;5054955;28;20419;-81
2023/06/30 13:17:21;;;;;;;2.77;1.73;;;;;;;;;;5054117;28;20514;-81
2023/06/30 13:19:48;;;;;;;4.10;1.93;;;;;;;;;;5054678;28;20504;-81
2023/06/30 13:22:14;;;;;;;4.90;1.50;;;;;;;;;;5054658;28;20416;-81
2023/06/30 13:24:43;;;;;;;5.90;1.87;;;;;;;;;;5054341;28;20684;-81
2023/06/30 13:27:09;;;;;;;3.43;1.50;;;;;;;;;;5054984;28;20466;-81
2023/06/30 13:29:36;;;;;;;3.20;1.70;;;;;;;;;;5053391;28;20412;-82
2023/06/30 13:32:02;;;;;;;2.03;1.53;;;;;;;;;;5053352;28;20452;-82
2023/06/30 13:34:28;;;;;;;4.10;1.90;;;;;;;;;;5053460;28;20432;-82
2023/06/30 13:36:54;;;;;;;3.53;2.00;;;;;;;;;;5053166;28;20499;-81
2023/06/30 13:39:20;;;;;;;3.43;1.93;;;;;;;;;;5054322;28;20432;-81
2023/06/30 13:41:46;;;;;;;1.37;1.27;;;;;;;;;;5052829;28;20478;-82
2023/06/30 13:44:12;;;;;;;3.57;1.30;;;;;;;;;;5053946;28;20511;-81
2023/06/30 13:46:38;;;;;;;6.53;1.67;;;;;;;;;;5053195;28;20497;-81
2023/06/30 13:49:04;;;;;;;3.50;1.83;;;;;;;;;;5054324;28;20412;-81
2023/06/30 13:51:30;;;;;;;2.20;1.80;;;;;;;;;;5053418;28;20468;-82
2023/06/30 13:53:56;;;;;;;6.83;1.67;;;;;;;;;;5053236;28;20427;-81
2023/06/30 13:56:23;;;;;;;4.90;1.40;;;;;;;;;;5052532;28;20416;-81
2023/06/30 13:58:49;;;;;;;7.60;1.60;;;;;;;;;;5053097;28;20448;-81
2023/06/30 14:01:15;;;;;;;5.20;1.80;;;;;;;;;;5033742;28;20456;-82
2023/06/30 14:03:42;;;;;;;2.20;1.60;;;;;;;;;;5051035;28;20430;-85
2023/06/30 14:06:08;;;;;;;2.87;1.43;;;;;;;;;;5052488;28;20495;-82
2023/06/30 14:08:34;;;;;;;3.20;1.90;;;;;;;;;;5053910;28;20408;-82
2023/06/30 14:11:00;;;;;;;3.40;1.80;;;;;;;;;;5052377;28;20471;-81
2023/06/30 14:13:27;;;;;;;1.80;1.40;;;;;;;;;;5053778;28;20505;-81
2023/06/30 14:15:53;;;;;;;2.53;1.73;;;;;;;;;;5053766;28;20422;-82
2023/06/30 14:18:19;;;;;;;4.90;2.00;;;;;;;;;;5052595;28;20895;-82
2023/06/30 14:20:47;;;;;;;5.87;2.13;;;;;;;;;;5053917;28;20413;-82
2023/06/30 14:23:13;;;;;;;6.33;1.50;;;;;;;;;;5036771;28;20431;-81
2023/06/30 14:25:39;;;;;;;2.57;1.50;;;;;;;;;;5052994;28;20451;-81
2023/06/30 14:28:05;;;;;;;6.47;2.00;;;;;;;;;;5053582;28;20774;-82
2023/06/30 14:30:34;;;;;;;1.83;1.53;;;;;;;;;;5051996;28;20416;-81
2023/06/30 14:33:01;;;;;;;4.43;1.70;;;;;;;;;;5051990;28;20460;-82